Time;durP1;ratioP1;P1;durP2;ratioP2;P2;SDS_P1;SDS_P2;PMS_P1;PMS_P2;Temp;Humidity;BMP_temperature;BMP_pressure;BME280_temperature;BME280_humidity;BME280_pressure;Samples;Min_cycle;Max_cycle;Signal;HPM_P1;HPM_P2
2024/01/07 00:01:14;;;;;;;39.53;21.50;;;;;;;6.91;100.00;97470.75;5132846;27;20027;-79
2024/01/07 00:03:42;;;;;;;45.72;23.02;;;;;;;7.04;100.00;97463.28;5118984;27;20104;-80
2024/01/07 00:06:09;;;;;;;47.15;24.90;;;;;;;6.65;100.00;97387.69;5132892;27;20074;-79
2024/01/07 00:08:35;;;;;;;48.95;24.75;;;;;;;6.75;100.00;97370.09;5132354;27;20035;-79
2024/01/07 00:11:00;;;;;;;41.30;21.92;;;;;;;7.12;100.00;97420.63;5126647;27;20484;-79
2024/01/07 00:13:26;;;;;;;45.60;23.80;;;;;;;6.81;100.00;97406.00;5133843;27;20109;-79
2024/01/07 00:15:53;;;;;;;42.08;24.17;;;;;;;6.89;100.00;97412.78;5134230;27;20487;-80
2024/01/07 00:18:19;;;;;;;52.03;26.08;;;;;;;7.01;100.00;97420.22;5107568;27;20519;-79
2024/01/07 00:20:44;;;;;;;51.47;26.30;;;;;;;7.11;100.00;97449.31;5099654;28;20028;-79
2024/01/07 00:23:10;;;;;;;54.05;28.08;;;;;;;6.98;100.00;97421.13;5100763;27;20028;-79
2024/01/07 00:25:35;;;;;;;58.50;31.02;;;;;;;7.00;100.00;97426.91;5104869;27;20027;-80
2024/01/07 00:28:01;;;;;;;54.90;29.42;;;;;;;7.05;100.00;97415.38;5111249;27;20517;-80
2024/01/07 00:30:26;;;;;;;61.75;31.13;;;;;;;7.10;100.00;97423.06;5106286;27;20047;-80
2024/01/07 00:32:52;;;;;;;62.13;31.40;;;;;;;6.88;100.00;97405.75;5113438;27;20042;-79
2024/01/07 00:35:18;;;;;;;61.35;31.40;;;;;;;6.77;100.00;97364.16;5124957;27;20035;-81
2024/01/07 00:37:43;;;;;;;58.08;28.48;;;;;;;7.19;100.00;97417.63;5094407;28;20036;-80
2024/01/07 00:40:09;;;;;;;58.33;30.48;;;;;;;6.91;100.00;97416.63;5113125;27;20039;-79
2024/01/07 00:42:35;;;;;;;53.53;28.88;;;;;;;6.83;100.00;97373.38;5104027;28;20130;-79
2024/01/07 00:45:00;;;;;;;60.42;30.10;;;;;;;6.51;100.00;97366.97;5122489;27;20035;-79
2024/01/07 00:47:26;;;;;;;54.33;28.85;;;;;;;6.69;100.00;97358.13;5116962;27;20448;-80
2024/01/07 00:49:51;;;;;;;52.28;27.00;;;;;;;6.79;100.00;97380.97;5111935;27;20108;-79
2024/01/07 00:52:16;;;;;;;54.85;26.55;;;;;;;6.68;100.00;97342.91;5112618;27;20060;-81
2024/01/07 00:54:42;;;;;;;51.35;27.13;;;;;;;6.80;100.00;97353.06;5111125;27;20066;-80
2024/01/07 00:57:07;;;;;;;48.55;25.70;;;;;;;6.92;100.00;97367.97;5104144;28;20026;-80
2024/01/07 00:59:32;;;;;;;51.30;26.50;;;;;;;6.68;100.00;97311.94;5117686;27;20114;-80
2024/01/07 01:01:58;;;;;;;53.05;25.85;;;;;;;6.51;100.00;97301.09;5105286;27;20106;-79
2024/01/07 01:04:23;;;;;;;49.72;25.75;;;;;;;6.81;100.00;97323.66;5104323;27;20027;-80
2024/01/07 01:06:49;;;;;;;48.97;25.88;;;;;;;6.71;100.00;97289.09;5126251;27;20662;-80
2024/01/07 01:09:14;;;;;;;42.20;23.80;;;;;;;6.66;100.00;97300.63;5118424;27;20030;-79
2024/01/07 01:11:40;;;;;;;47.88;22.75;;;;;;;6.96;100.00;97335.66;5121172;27;20054;-80
2024/01/07 01:14:05;;;;;;;44.17;22.70;;;;;;;6.44;100.00;97257.47;5118642;28;20031;-79
2024/01/07 01:16:30;;;;;;;45.55;23.80;;;;;;;6.41;100.00;97265.81;5109129;28;20386;-80
2024/01/07 01:18:56;;;;;;;44.72;22.77;;;;;;;6.64;100.00;97294.81;5113117;27;20038;-80
2024/01/07 01:21:21;;;;;;;44.33;22.15;;;;;;;6.57;100.00;97278.63;5111085;28;20031;-80
2024/01/07 01:23:47;;;;;;;43.15;21.40;;;;;;;6.36;100.00;97228.75;5100062;27;20180;-79
2024/01/07 01:26:13;;;;;;;41.67;23.17;;;;;;;6.58;100.00;97236.22;5104093;28;20123;-79
2024/01/07 01:28:38;;;;;;;47.42;24.35;;;;;;;6.50;100.00;97216.53;5100954;27;20034;-78
2024/01/07 01:31:04;;;;;;;46.92;25.02;;;;;;;6.71;100.00;97251.44;5113210;27;20027;-79
2024/01/07 01:33:30;;;;;;;44.10;21.20;;;;;;;6.86;100.00;97243.47;5105942;27;20076;-79
2024/01/07 01:35:55;;;;;;;43.95;24.23;;;;;;;7.06;100.00;97251.38;5118247;27;20027;-80
2024/01/07 01:38:20;;;;;;;52.10;25.50;;;;;;;7.04;100.00;97227.13;5107932;28;20436;-80
2024/01/07 01:40:53;;;;;;;42.85;23.13;;;;;;;7.38;100.00;97242.72;5120110;27;20038;-80
2024/01/07 01:43:26;;;;;;;45.58;24.27;;;;;;;7.40;100.00;97232.03;5113476;27;20067;-79
2024/01/07 01:45:53;;;;;;;42.47;22.60;;;;;;;7.52;100.00;97206.44;5111136;27;20034;-79
2024/01/07 01:48:18;;;;;;;44.42;23.70;;;;;;;7.50;100.00;97219.09;5128660;27;20515;-79
2024/01/07 01:50:44;;;;;;;45.28;23.30;;;;;;;7.24;100.00;97200.06;5113527;27;20044;-79
2024/01/07 01:53:10;;;;;;;47.33;23.10;;;;;;;7.49;100.00;97220.31;5117277;27;20050;-79
2024/01/07 01:55:35;;;;;;;46.45;24.50;;;;;;;7.57;100.00;97196.84;5102789;27;20089;-79
2024/01/07 01:58:03;;;;;;;42.53;22.08;;;;;;;7.48;100.00;97207.78;5112308;27;20446;-79
2024/01/07 02:00:30;;;;;;;43.95;22.48;;;;;;;7.69;100.00;97217.94;5110361;27;20028;-81
2024/01/07 02:02:55;;;;;;;39.90;21.27;;;;;;;7.43;100.00;97164.41;5117666;27;20031;-80
2024/01/07 02:05:21;;;;;;;40.60;21.98;;;;;;;7.54;100.00;97183.97;5124371;27;20019;-80
2024/01/07 02:07:47;;;;;;;43.30;21.67;;;;;;;7.57;100.00;97163.84;5128093;27;20063;-80
2024/01/07 02:10:13;;;;;;;38.33;21.70;;;;;;;7.80;100.00;97185.28;5129796;27;20024;-79
2024/01/07 02:12:38;;;;;;;38.35;21.70;;;;;;;7.68;100.00;97137.47;5107638;28;20015;-79
2024/01/07 02:15:04;;;;;;;38.75;21.77;;;;;;;8.10;100.00;97189.94;5100230;28;20032;-79
2024/01/07 02:17:30;;;;;;;42.45;21.40;;;;;;;7.95;100.00;97171.75;5111531;28;20042;-80
2024/01/07 02:19:56;;;;;;;44.53;22.75;;;;;;;7.74;100.00;97135.66;5124912;28;20110;-79
2024/01/07 02:22:21;;;;;;;43.17;23.50;;;;;;;7.87;100.00;97157.50;5115014;27;20019;-79
2024/01/07 02:24:47;;;;;;;41.58;23.08;;;;;;;7.75;100.00;97158.41;5096918;28;20150;-80
2024/01/07 02:27:12;;;;;;;47.60;23.88;;;;;;;7.59;100.00;97131.19;5100338;28;20019;-78
2024/01/07 02:29:38;;;;;;;49.22;23.75;;;;;;;7.58;100.00;97137.91;5110589;28;20529;-79
2024/01/07 02:32:03;;;;;;;45.45;22.77;;;;;;;7.89;100.00;97155.09;5105153;27;20509;-79
2024/01/07 02:34:29;;;;;;;40.92;21.10;;;;;;;7.87;100.00;97159.50;5115202;27;20786;-79
2024/01/07 02:36:54;;;;;;;43.08;23.05;;;;;;;7.93;100.00;97161.19;5116944;27;20061;-79
2024/01/07 02:39:19;;;;;;;;;;;;;;;8.06;100.00;97139.06;5119028;27;20055;-79
2024/01/07 02:41:45;;;;;;;;;;;;;;;7.96;100.00;97121.75;5111276;27;19916;-79
2024/01/07 02:44:11;;;;;;;;;;;;;;;7.99;100.00;97145.63;5100546;27;20304;-79
2024/01/07 02:46:36;;;;;;;;;;;;;;;7.99;100.00;97147.59;5135153;27;19911;-79
2024/01/07 02:49:01;;;;;;;;;;;;;;;7.91;100.00;97116.88;5121824;27;20014;-79
2024/01/07 02:51:26;;;;;;;;;;;;;;;7.74;100.00;97151.38;5133265;27;19915;-79
2024/01/07 02:53:52;;;;;;;;;;;;;;;7.69;100.00;97160.22;5120848;27;20044;-80
2024/01/07 02:56:17;;;;;;;;;;;;;;;7.68;100.00;97125.72;5111201;27;19922;-79
2024/01/07 02:58:42;;;;;;;;;;;;;;;7.74;100.00;97121.91;5110523;27;20389;-80
2024/01/07 03:01:10;;;;;;;;;;;;;;;7.80;100.00;97130.31;5127442;27;19915;-79
2024/01/07 03:03:36;;;;;;;;;;;;;;;7.84;100.00;97139.16;5107855;27;19916;-79
2024/01/07 03:06:02;;;;;;;;;;;;;;;7.77;100.00;97144.97;5126973;27;19923;-80
2024/01/07 03:08:27;;;;;;;;;;;;;;;7.82;100.00;97107.88;5122090;27;19919;-80
2024/01/07 03:10:53;;;;;;;;;;;;;;;7.81;100.00;97136.56;5123442;27;20285;-78
2024/01/07 03:13:18;;;;;;;;;;;;;;;7.78;100.00;97141.75;5119617;27;19958;-80
2024/01/07 03:15:43;;;;;;;;;;;;;;;7.81;100.00;97123.59;5118327;27;20002;-79
2024/01/07 03:18:09;;;;;;;;;;;;;;;7.83;100.00;97120.41;5125416;27;19989;-80
2024/01/07 03:20:34;;;;;;;;;;;;;;;7.89;100.00;97132.31;5116254;27;19923;-79
2024/01/07 03:23:02;;;;;;;;;;;;;;;7.88;100.00;97131.56;5124272;27;19926;-80
2024/01/07 03:25:27;;;;;;;;;;;;;;;7.76;100.00;97141.47;5101708;28;20380;-79
2024/01/07 03:27:53;;;;;;;;;;;;;;;7.73;100.00;97130.59;5120703;27;19915;-81
2024/01/07 03:30:18;;;;;;;;;;;;;;;7.72;100.00;97137.31;5108086;27;19962;-82
2024/01/07 03:32:43;;;;;;;;;;;;;;;7.75;100.00;97123.44;5121683;27;19940;-80
2024/01/07 03:35:09;;;;;;;;;;;;;;;7.78;100.00;97112.75;5129029;27;20546;-80
2024/01/07 03:37:34;;;;;;;;;;;;;;;7.72;100.00;97093.31;5105746;28;20432;-80
2024/01/07 03:40:00;;;;;;;;;;;;;;;7.80;100.00;97083.56;5125900;27;20045;-81
2024/01/07 03:42:25;;;;;;;;;;;;;;;7.82;100.00;97075.63;5115977;27;19920;-80
2024/01/07 03:44:50;;;;;;;;;;;;;;;7.81;100.00;97063.13;5125736;27;19919;-80
2024/01/07 03:47:16;;;;;;;;;;;;;;;7.74;100.00;97058.69;5127592;27;20378;-81
2024/01/07 03:49:41;;;;;;;;;;;;;;;7.68;100.00;97038.50;5133778;27;19912;-81
2024/01/07 03:52:06;;;;;;;;;;;;;;;7.67;100.00;97025.22;5115720;27;19928;-79
2024/01/07 03:54:32;;;;;;;;;;;;;;;7.65;100.00;97011.19;5127697;27;20073;-80
2024/01/07 03:56:57;;;;;;;;;;;;;;;7.59;100.00;96991.03;5104237;28;19915;-79
2024/01/07 03:59:23;;;;;;;;;;;;;;;7.33;100.00;96982.31;5104494;27;19965;-80
2024/01/07 04:01:48;;;;;;;;;;;;;;;7.17;100.00;96966.88;5115533;27;20014;-80
2024/01/07 04:04:13;;;;;;;;;;;;;;;7.18;100.00;96957.41;5124398;27;20349;-81
2024/01/07 04:06:39;;;;;;;;;;;;;;;7.13;100.00;96974.50;5117411;27;19919;-80
2024/01/07 04:09:04;;;;;;;;;;;;;;;7.14;100.00;96992.50;5126211;27;19938;-79
2024/01/07 04:11:29;;;;;;;;;;;;;;;7.18;100.00;97001.34;5119511;27;20369;-80
2024/01/07 04:13:55;;;;;;;;;;;;;;;7.20;100.00;97015.41;5120280;27;19915;-80
2024/01/07 04:16:20;;;;;;;;;;;;;;;7.19;100.00;97013.09;5108648;27;19946;-79
2024/01/07 04:18:46;;;;;;;;;;;;;;;7.24;100.00;97020.75;5122937;27;19919;-80
2024/01/07 04:21:11;;;;;;;;;;;;;;;7.20;100.00;97014.63;5117489;27;19911;-79
2024/01/07 04:23:38;;;;;;;;;;;;;;;7.36;100.00;97003.38;5117812;27;19919;-79
2024/01/07 04:26:03;;;;;;;;;;;;;;;7.35;100.00;96999.84;5118742;27;19916;-79
2024/01/07 04:28:28;;;;;;;;;;;;;;;7.34;100.00;97019.56;5121504;27;19919;-81
2024/01/07 04:30:53;;;;;;;;;;;;;;;7.33;100.00;96999.56;5122695;27;19915;-79
2024/01/07 04:33:19;;;;;;;;;;;;;;;7.30;100.00;97021.66;5130600;27;20449;-79
2024/01/07 04:35:44;;;;;;;;;;;;;;;7.40;100.00;96995.00;5119277;27;19923;-80
2024/01/07 04:38:09;;;;;;;;;;;;;;;7.50;100.00;96971.78;5131151;27;19922;-79
2024/01/07 04:40:34;;;;;;;;;;;;;;;7.55;100.00;96979.41;5114671;27;19977;-81
2024/01/07 04:43:00;;;;;;;;;;;;;;;7.50;100.00;96977.28;5114088;27;19935;-79
2024/01/07 04:45:25;;;;;;;;;;;;;;;7.47;100.00;96983.69;5105356;27;20385;-80
2024/01/07 04:47:50;;;;;;;;;;;;;;;7.36;100.00;96992.38;5129863;27;19915;-80
2024/01/07 04:50:19;;;;;;;;;;;;;;;7.39;100.00;97004.44;5122818;27;19915;-81
2024/01/07 04:52:44;;;;;;;;;;;;;;;7.35;100.00;97008.09;5124498;27;19930;-80
2024/01/07 04:55:10;;;;;;;;;;;;;;;7.25;100.00;97009.31;5109515;27;19912;-80
2024/01/07 04:57:35;;;;;;;;;;;;;;;7.14;100.00;97038.44;5130857;27;19915;-81
2024/01/07 05:00:02;;;;;;;;;;;;;;;7.14;100.00;97032.94;5109590;27;19912;-80
2024/01/07 05:02:27;;;;;;;;;;;;;;;7.21;100.00;97027.94;5117049;27;19922;-80
2024/01/07 05:04:53;;;;;;;;;;;;;;;7.20;100.00;97009.16;5123930;27;20303;-79
2024/01/07 05:07:18;;;;;;;;;;;;;;;7.22;100.00;97018.47;5115722;27;19919;-80
2024/01/07 05:09:43;;;;;;;;;;;;;;;7.21;100.00;97005.19;5120002;27;19968;-79
2024/01/07 05:12:08;;;;;;;;;;;;;;;7.29;100.00;97014.66;5119108;27;19923;-80
2024/01/07 05:14:34;;;;;;;;;;;;;;;7.32;100.00;97022.75;5127663;27;19912;-80
2024/01/07 05:16:59;;;;;;;;;;;;;;;7.22;100.00;97017.69;5103521;27;19972;-79
2024/01/07 05:19:24;;;;;;;;;;;;;;;7.21;100.00;97016.16;5111671;27;19916;-79
2024/01/07 05:21:50;;;;;;;;;;;;;;;7.20;100.00;97031.13;5113610;27;20002;-79
2024/01/07 05:24:15;;;;;;;;;;;;;;;6.98;100.00;97019.47;5118694;27;19972;-80
2024/01/07 05:26:44;;;;;;;;;;;;;;;6.88;100.00;97008.44;5111709;27;19915;-81
2024/01/07 05:29:10;;;;;;;;;;;;;;;6.88;100.00;97000.22;5132021;27;19955;-80
2024/01/07 05:31:35;;;;;;;;;;;;;;;7.01;100.00;96996.59;5107584;27;19985;-80
2024/01/07 05:34:00;;;;;;;;;;;;;;;7.05;100.00;97011.72;5112024;27;19921;-78
2024/01/07 05:36:26;;;;;;;;;;;;;;;7.01;100.00;97004.81;5114740;27;20352;-79
2024/01/07 05:38:51;;;;;;;;;;;;;;;7.09;100.00;96989.59;5121268;27;19922;-80
2024/01/07 05:41:16;;;;;;;;;;;;;;;7.16;100.00;96992.06;5127516;27;19911;-78
2024/01/07 05:43:42;;;;;;;;;;;;;;;7.20;100.00;96996.19;5120727;27;20433;-78
2024/01/07 05:46:07;;;;;;;;;;;;;;;7.26;100.00;96994.34;5112640;27;19915;-79
2024/01/07 05:48:45;;;;;;;;;;;;;;;7.24;100.00;96988.53;5122704;27;19948;-79
2024/01/07 05:51:11;;;;;;;;;;;;;;;7.22;100.00;96977.28;5108638;28;19950;-79
2024/01/07 05:53:36;;;;;;;;;;;;;;;7.29;100.00;96976.94;5110572;27;19967;-78
2024/01/07 05:56:02;;;;;;;;;;;;;;;7.41;100.00;96989.03;5118639;27;19924;-79
2024/01/07 05:58:28;;;;;;;;;;;;;;;7.48;100.00;96987.94;5123884;27;19920;-80
2024/01/07 06:00:53;;;;;;;;;;;;;;;7.43;100.00;96996.81;5120591;27;19923;-80
2024/01/07 06:03:18;;;;;;;;;;;;;;;7.54;100.00;97010.84;5099196;28;20361;-80
2024/01/07 06:05:44;;;;;;;;;;;;;;;7.56;100.00;97005.69;5125779;27;19973;-80
2024/01/07 06:08:10;;;;;;;;;;;;;;;7.48;100.00;96996.97;5123641;27;19924;-80
2024/01/07 06:10:35;;;;;;;;;;;;;;;7.38;100.00;97002.91;5130071;27;19912;-79
2024/01/07 06:13:00;;;;;;;;;;;;;;;7.47;100.00;97005.69;5119872;27;20357;-80
2024/01/07 06:15:25;;;;;;;;;;;;;;;7.60;100.00;96993.31;5114021;27;19923;-80
2024/01/07 06:17:51;;;;;;;;;;;;;;;7.60;100.00;96987.81;5110470;27;19926;-81
2024/01/07 06:20:17;;;;;;;;;;;;;;;7.73;100.00;96993.91;5105266;28;20399;-80
2024/01/07 06:22:42;;;;;;;;;;;;;;;7.79;100.00;97013.31;5116342;27;19969;-80
2024/01/07 06:25:07;;;;;;;;;;;;;;;7.75;100.00;96999.72;5118898;28;19915;-80
2024/01/07 06:27:33;;;;;;;;;;;;;;;7.69;100.00;97007.06;5123415;27;19923;-80
2024/01/07 06:29:58;;;;;;;;;;;;;;;7.72;100.00;96999.88;5121503;27;19916;-80
2024/01/07 06:32:25;;;;;;;;;;;;;;;7.82;100.00;97023.41;5110742;28;20405;-80
2024/01/07 06:34:50;;;;;;;;;;;;;;;7.94;100.00;97014.22;5099497;28;20371;-77
2024/01/07 06:37:15;;;;;;;;;;;;;;;7.83;100.00;97016.69;5108341;28;19967;-79
2024/01/07 06:39:41;;;;;;;;;;;;;;;7.89;100.00;97011.34;5105448;28;20397;-80
2024/01/07 06:42:06;;;;;;;;;;;;;;;8.16;100.00;97028.56;5131507;27;19915;-78
2024/01/07 06:44:31;;;;;;;;;;;;;;;8.29;100.00;97024.88;5131295;27;20349;-79
2024/01/07 06:46:56;;;;;;;;;;;;;;;8.32;100.00;97043.25;5113039;27;19919;-77
2024/01/07 06:49:22;;;;;;;;;;;;;;;8.50;100.00;97032.16;5124699;28;19915;-81
2024/01/07 06:51:47;;;;;;;;;;;;;;;8.78;100.00;97041.13;5129764;27;19919;-78
2024/01/07 06:54:12;;;;;;;;;;;;;;;8.58;100.00;97038.88;5131493;27;19919;-79
2024/01/07 06:56:38;;;;;;;;;;;;;;;8.83;100.00;97037.72;5118365;27;19912;-80
2024/01/07 06:59:03;;;;;;;;;;;;;;;9.02;100.00;97033.69;5126265;27;20009;-80
2024/01/07 07:01:28;;;;;;;;;;;;;;;9.23;100.00;97018.09;5105935;28;20389;-81
2024/01/07 07:03:53;;;;;;;;;;;;;;;9.28;100.00;97015.44;5103752;28;19968;-80
2024/01/07 07:06:19;;;;;;;;;;;;;;;9.49;100.00;97013.66;5111024;27;19915;-77
2024/01/07 07:08:44;;;;;;;;;;;;;;;9.41;100.00;97012.47;5111395;28;19915;-78
2024/01/07 07:11:09;;;;;;;;;;;;;;;9.65;100.00;97015.97;5110642;28;19926;-79
2024/01/07 07:13:34;;;;;;;;;;;;;;;9.82;100.00;97014.28;5109958;28;19938;-79
2024/01/07 07:16:00;;;;;;;;;;;;;;;9.90;100.00;97014.69;5110309;27;19927;-78
2024/01/07 07:18:26;;;;;;;;;;;;;;;10.01;100.00;97008.63;5107730;27;19916;-79
2024/01/07 07:20:51;;;;;;;;;;;;;;;10.15;100.00;97013.41;5101787;27;20369;-78
2024/01/07 07:23:16;;;;;;;;;;;;;;;10.28;100.00;97005.66;5126202;27;19962;-79
2024/01/07 07:25:42;;;;;;;;;;;;;;;10.66;100.00;97001.25;5101076;28;19950;-80
2024/01/07 07:28:07;;;;;;;;;;;;;;;10.78;100.00;97002.94;5114842;27;20060;-82
2024/01/07 07:30:32;;;;;;;;;;;;;;;11.09;100.00;96999.66;5131665;27;19966;-80
2024/01/07 07:32:57;;;;;;;;;;;;;;;11.45;100.00;97003.91;5124733;27;20404;-80
2024/01/07 07:35:23;;;;;;;;;;;;;;;11.67;100.00;97001.41;5114380;27;19911;-81
2024/01/07 07:37:48;;;;;;;;;;;;;;;11.90;100.00;96994.91;5134573;27;19919;-80
2024/01/07 07:40:13;;;;;;;;;;;;;;;11.72;100.00;97000.69;5135399;27;19918;-79
2024/01/07 07:42:39;;;;;;;;;;;;;;;12.00;100.00;96999.03;5126872;27;19973;-79
2024/01/07 07:45:04;;;;;;;;;;;;;;;12.24;100.00;96982.16;5113110;27;19915;-79
2024/01/07 07:47:30;;;;;;;;;;;;;;;12.38;100.00;96986.06;5133647;27;19915;-79
2024/01/07 07:49:55;;;;;;;;;;;;;;;12.51;100.00;96987.19;5134447;27;19911;-79
2024/01/07 07:52:25;;;;;;;;;;;;;;;12.59;100.00;96981.97;5135325;27;19924;-78
2024/01/07 07:54:54;;;;;;;;;;;;;;;12.91;100.00;96975.13;5136823;27;19918;-78
2024/01/07 07:57:21;;;;;;;;;;;;;;;13.10;87.72;96974.75;5135260;27;20345;-80
2024/01/07 07:59:46;;;;;;;;;;;;;;;13.32;77.98;96959.00;5119027;27;19908;-79
2024/01/07 08:02:12;;;;;;;;;;;;;;;13.52;80.36;96966.41;5113141;28;20391;-81
2024/01/07 08:04:37;;;;;;;;;;;;;;;13.54;79.97;96963.91;5126527;27;20300;-79
2024/01/07 08:07:02;;;;;;;;;;;;;;;13.49;72.33;96972.22;5121493;27;20296;-80
2024/01/07 08:09:27;;;;;;;;;;;;;;;13.63;73.88;96966.47;5117584;27;20387;-79
2024/01/07 08:11:53;;;;;;;;;;;;;;;13.76;73.99;96963.22;5113587;27;19908;-80
2024/01/07 08:14:18;;;;;;;;;;;;;;;13.74;78.15;96960.94;5133308;27;19911;-80
2024/01/07 08:16:43;;;;;;;;;;;;;;;13.74;67.90;96971.31;5119215;27;19911;-80
2024/01/07 08:19:09;;;;;;;;;;;;;;;13.67;69.24;96974.56;5134113;27;19968;-78
2024/01/07 08:21:35;;;;;;;;;;;;;;;13.80;64.01;96969.31;5132973;27;19911;-78
2024/01/07 08:24:00;;;;;;;;;;;;;;;13.90;62.64;96955.94;5132521;27;19916;-79
2024/01/07 08:26:25;;;;;;;;;;;;;;;14.06;62.03;96971.88;5133663;27;20350;-80
2024/01/07 08:28:50;;;;;;;;;;;;;;;14.13;66.87;96974.94;5132026;27;20284;-79
2024/01/07 08:31:16;;;;;;;;;;;;;;;14.00;59.81;96973.88;5132500;27;20360;-80
2024/01/07 08:33:41;;;;;;;;;;;;;;;14.20;61.13;96973.69;5132751;27;19933;-79
2024/01/07 08:36:06;;;;;;;;;;;;;;;14.25;56.19;96989.59;5118657;27;19908;-80
2024/01/07 08:38:32;;;;;;;;;;;;;;;14.15;58.24;96980.00;5132593;27;19930;-79
2024/01/07 08:40:57;;;;;;;;;;;;;;;14.38;56.67;96978.78;5132061;27;20408;-79
2024/01/07 08:43:22;;;;;;;;;;;;;;;14.62;64.72;96975.53;5132105;27;19911;-79
2024/01/07 08:45:48;;;;;;;;;;;;;;;14.79;63.76;96972.72;5132316;27;19907;-79
2024/01/07 08:48:13;;;;;;;;;;;;;;;14.83;64.49;96978.81;5132484;27;19952;-79
2024/01/07 08:50:38;;;;;;;;;;;;;;;14.75;69.65;96972.22;5131992;27;19926;-79
2024/01/07 08:53:04;;;;;;;;;;;;;;;14.84;76.95;96969.19;5126331;27;19919;-80
2024/01/07 08:55:29;;;;;;;;;;;;;;;14.69;74.50;96971.47;5111676;28;20505;-79
2024/01/07 08:57:55;;;;;;;;;;;;;;;14.31;74.86;96962.59;5111741;28;19919;-79
2024/01/07 09:00:21;;;;;;;;;;;;;;;14.58;73.35;96956.31;5112728;28;19908;-79
2024/01/07 09:02:47;;;;;;;;;;;;;;;14.87;67.57;96957.06;5118787;27;19911;-80
2024/01/07 09:05:12;;;;;;;;;;;;;;;15.23;64.06;96944.84;5131179;27;19913;-78
2024/01/07 09:07:37;;;;;;;;;;;;;;;15.56;54.51;96937.66;5133013;27;19907;-79
2024/01/07 09:10:03;;;;;;;;;;;;;;;15.76;55.59;96935.28;5132830;27;19907;-80
2024/01/07 09:12:28;;;;;;;;;;;;;;;15.82;54.23;96933.25;5104386;27;19916;-80
2024/01/07 09:14:53;;;;;;;;;;;;;;;15.92;50.22;96938.47;5131735;27;20336;-79
2024/01/07 09:17:19;;;;;;;;;;;;;;;16.10;51.14;96932.28;5113287;27;19945;-79
2024/01/07 09:19:45;;;;;;;;;;;;;;;16.04;51.54;96946.25;5124150;27;19911;-78
2024/01/07 09:22:11;;;;;;;;;;;;;;;16.07;51.28;96948.03;5131377;27;20006;-79
2024/01/07 09:24:37;;;;;;;;;;;;;;;16.16;49.55;96933.78;5120068;27;20010;-80
2024/01/07 09:27:02;;;;;;;;;;;;;;;16.18;50.90;96936.81;5114765;27;19961;-81
2024/01/07 09:29:27;;;;;;;;;;;;;;;16.02;49.66;96939.72;5104641;27;20353;-79
2024/01/07 09:31:53;;;;;;;;;;;;;;;15.92;47.80;96928.09;5130023;27;19907;-79
2024/01/07 09:34:18;;;;;;;;;;;;;;;16.00;50.48;96936.69;5130804;27;19955;-80
2024/01/07 09:36:43;;;;;;;;;;;;;;;15.80;49.20;96946.16;5113442;27;19922;-81
2024/01/07 09:39:09;;;;;;;;;;;;;;;15.95;49.78;96934.69;5107446;27;19915;-79
2024/01/07 09:41:35;;;;;;;;;;;;;;;15.94;50.95;96931.13;5116936;27;19915;-81
2024/01/07 09:44:00;;;;;;;;;;;;;;;16.01;49.24;96927.81;5111511;28;19973;-80
2024/01/07 09:46:26;;;;;;;;;;;;;;;16.04;47.35;96912.84;5109268;27;19945;-81
2024/01/07 09:48:51;;;;;;;;;;;;;;;16.01;49.81;96933.38;5116393;27;19923;-80
2024/01/07 09:51:18;;;;;;;;;;;;;;;15.98;50.24;96912.13;5131795;27;19938;-79
2024/01/07 09:53:46;;;;;;;;;;;;;;;15.90;49.64;96918.78;5131756;27;19919;-80
2024/01/07 09:56:17;;;;;;;;;;;;;;;16.02;51.13;96912.63;5111190;27;19919;-80
2024/01/07 09:58:43;;;;;;;;;;;;;;;16.20;49.43;96902.88;5121672;27;19924;-80
2024/01/07 10:01:08;;;;;;;;;;;;;;;16.36;49.06;96901.22;5105337;27;19916;-79
2024/01/07 10:03:33;;;;;;;;;;;;;;;16.42;48.70;96902.69;5129195;27;19927;-80
2024/01/07 10:05:59;;;;;;;;;;;;;;;16.34;47.91;96900.97;5131152;27;19911;-79
2024/01/07 10:08:24;;;;;;;;;;;;;;;16.24;47.28;96890.16;5124789;27;20384;-79
2024/01/07 10:10:49;;;;;;;;;;;;;;;16.27;48.36;96897.47;5123184;27;19942;-80
2024/01/07 10:13:14;;;;;;;;;;;;;;;16.16;50.28;96891.22;5117789;28;19998;-78
2024/01/07 10:15:40;;;;;;;;;;;;;;;15.74;47.80;96895.28;5123266;27;20335;-79
2024/01/07 10:18:06;;;;;;;;;;;;;;;16.05;46.44;96894.84;5116359;27;20064;-80
2024/01/07 10:20:35;;;;;;;;;;;;;;;16.54;44.54;96897.75;5114750;28;20002;-81
2024/01/07 10:23:01;;;;;;;;;;;;;;;16.15;46.84;96889.72;5123647;28;20384;-81
2024/01/07 10:25:26;;;;;;;;;;;;;;;16.03;48.29;96885.53;5119258;27;19923;-80
2024/01/07 10:27:52;;;;;;;;;;;;;;;15.99;48.44;96885.03;5131360;27;19922;-81
2024/01/07 10:30:17;;;;;;;;;;;;;;;15.65;48.72;96890.81;5130354;27;19911;-81
2024/01/07 10:32:43;;;;;;;;;;;;;;;15.93;46.51;96887.09;5096494;28;19920;-80
2024/01/07 10:35:11;;;;;;;;;;;;;;;15.97;47.72;96882.78;5111628;28;20377;-80
2024/01/07 10:37:37;;;;;;;;;;;;;;;16.37;45.04;96875.63;5116189;28;19912;-82
2024/01/07 10:40:03;;;;;;;;;;;;;;;16.36;44.83;96884.50;5115992;28;20006;-81
2024/01/07 10:42:32;;;;;;;;;;;;;;;16.44;43.82;96869.47;5118149;27;19915;-81
2024/01/07 10:44:58;;;;;;;;;;;;;;;16.63;44.31;96886.31;5104714;28;19916;-82
2024/01/07 10:47:27;;;;;;;;;;;;;;;16.55;44.80;96868.63;5104747;28;20020;-83
2024/01/07 10:49:54;;;;;;;;;;;;;;;16.47;44.03;96868.41;5106685;28;20002;-82
2024/01/07 10:52:20;;;;;;;;;;;;;;;16.57;44.42;96866.81;5120584;27;19920;-81
2024/01/07 10:54:47;;;;;;;;;;;;;;;16.68;44.64;96866.00;5104146;27;19920;-82
2024/01/07 10:57:17;;;;;;;;;;;;;;;16.55;45.34;96874.94;5107983;28;19941;-83
2024/01/07 10:59:44;;;;;;;;;;;;;;;16.46;42.87;96860.56;5123811;27;19922;-84
2024/01/07 11:02:10;;;;;;;;;;;;;;;16.34;44.78;96859.91;5129313;27;20353;-79
2024/01/07 11:04:45;;;;;;;;;;;;;;;16.28;44.27;96856.41;5102231;27;19919;-79
2024/01/07 11:07:20;;;;;;;;;;;;;;;16.17;43.59;96848.16;5114840;27;19920;-81
2024/01/07 11:10:05;;;;;;;;;;;;;;;16.01;44.23;96844.25;5145232;27;19914;-79
2024/01/07 11:12:31;;;;;;;;;;;;;;;16.10;44.77;96832.75;5137865;27;19919;-80
2024/01/07 11:14:57;;;;;;;;;;;;;;;16.09;43.93;96828.47;5138247;27;20281;-81
2024/01/07 11:17:31;;;;;;;;;;;;;;;15.85;43.78;96825.63;5127899;27;20292;-81
2024/01/07 11:19:59;;;;;;;;;;;;;;;15.95;44.91;96821.25;5126895;27;19907;-81
2024/01/07 11:22:27;;;;;;;;;;;;;;;16.18;43.70;96830.16;5132210;27;19907;-79
2024/01/07 11:24:52;;;;;;;;;;;;;;;16.37;51.82;96827.47;5132136;27;19908;-80
2024/01/07 11:27:18;;;;;;;;;;;;;;;15.74;63.65;96825.69;5131738;27;19934;-81
2024/01/07 11:29:43;;;;;;;;;;;;;;;15.33;66.08;96831.97;5131603;27;20364;-79
2024/01/07 11:32:12;;;;;;;;;;;;;;;15.06;68.21;96821.75;5133092;27;19964;-78
2024/01/07 11:34:43;;;;;;;;;;;;;;;14.98;68.30;96823.53;5132776;27;19943;-80
2024/01/07 11:37:15;;;;;;;;;;;;;;;14.99;66.11;96825.06;5133677;27;19907;-79
2024/01/07 11:39:47;;;;;;;;;;;;;;;15.00;66.02;96823.81;5130634;27;19912;-78
2024/01/07 11:42:12;;;;;;;;;;;;;;;15.00;64.28;96827.34;5114185;28;19911;-78
2024/01/07 11:44:44;;;;;;;;;;;;;;;14.96;72.46;96826.84;5117286;27;19908;-81
2024/01/07 11:47:10;;;;;;;;;;;;;;;14.58;77.44;96831.25;5133396;27;19919;-78
2024/01/07 11:49:35;;;;;;;;;;;;;;;14.49;76.88;96834.28;5128202;27;19908;-79
2024/01/07 11:52:02;;;;;;;;;;;;;;;14.33;75.01;96835.06;5123882;27;20381;-80
2024/01/07 11:54:27;;;;;;;;;;;;;;;14.45;75.51;96833.81;5119594;27;19971;-79
2024/01/07 11:56:53;;;;;;;;;;;;;;;14.59;76.14;96827.19;5134636;27;20006;-79
2024/01/07 11:59:19;;;;;;;;;;;;;;;14.61;72.63;96833.00;5134403;27;19907;-79
2024/01/07 12:01:44;;;;;;;;;;;;;;;14.68;68.09;96833.75;5134250;27;20032;-78
2024/01/07 12:04:10;;;;;;;;;;;;;;;14.76;66.57;96832.72;5132102;27;20028;-81
2024/01/07 12:06:35;;;;;;;;;;;;;;;14.74;65.61;96831.72;5134925;27;19924;-79
2024/01/07 12:09:01;;;;;;;;;;;;;;;14.96;66.20;96823.28;5132841;27;20292;-78
2024/01/07 12:11:26;;;;;;;;;;;;;;;14.74;66.04;96826.16;5132983;27;19915;-79
2024/01/07 12:13:52;;;;;;;;;;;;;;;14.90;64.61;96822.56;5115854;27;20391;-81
2024/01/07 12:16:17;;;;;;;;;;;;;;;15.04;64.43;96818.72;5112457;28;19922;-78
2024/01/07 12:18:42;;;;;;;;;;;;;;;15.19;63.00;96821.19;5130143;27;19972;-82